Terminal Aerodrome Forecast
Issued by NWS

Home | Current Version | Previous Version | Graphics & Text | Print | Product List | Glossary On
Versions: 1 2 3 4 5 6 7 8 9 10 11 12 13 14 15 16 17 18 19 20 21 22 23 24 25 26 27 28
900
FTUS43 KGRB 252335
TAFCWA
TAF
KCWA 252335Z 2600/2624 18008KT P6SM VCTS SCT035 BKN070CB
     FM260400 18006KT P6SM BKN050
     FM260600 19006KT P6SM VCSH OVC050 WS020/23035KT
     FM260900 20005KT P6SM VCSH OVC035 WS020/24035KT
     FM261200 21006KT P6SM OVC035
     FM261800 25006KT P6SM VCSH BKN025=

USA.gov is the U.S. government's official web portal to all federal, state and local government web resources and services.